Time;durP1;ratioP1;P1;durP2;ratioP2;P2;SDS_P1;SDS_P2;PMS_P1;PMS_P2;Temp;Humidity;BMP_temperature;BMP_pressure;BME280_temperature;BME280_humidity;BME280_pressure;Samples;Min_cycle;Max_cycle;Signal;HPM_P1;HPM_P2
2021/05/12 00:01:30;;;;;;;15.68;12.88;;;12.20;99.90;;;;;;5091473;28;20119;-70
2021/05/12 00:03:56;;;;;;;14.77;12.95;;;12.20;99.90;;;;;;5103419;28;20031;-70
2021/05/12 00:06:22;;;;;;;15.70;12.50;;;12.20;99.90;;;;;;5095839;28;20038;-70
2021/05/12 00:08:47;;;;;;;15.07;13.02;;;12.20;99.90;;;;;;5083065;28;20415;-69
2021/05/12 00:11:13;;;;;;;15.23;13.65;;;12.10;99.90;;;;;;5091441;28;20035;-69
2021/05/12 00:13:39;;;;;;;15.65;13.85;;;12.10;99.90;;;;;;5101429;28;20050;-69
2021/05/12 00:16:05;;;;;;;18.55;13.27;;;12.10;99.90;;;;;;5099348;28;20097;-69
2021/05/12 00:18:37;;;;;;;15.30;13.70;;;12.10;99.90;;;;;;5102710;28;20091;-69
2021/05/12 00:21:05;;;;;;;17.05;13.55;;;12.10;99.90;;;;;;5090943;28;20081;-69
2021/05/12 00:23:43;;;;;;;17.27;13.88;;;12.20;99.90;;;;;;5102382;28;20475;-69
2021/05/12 00:26:09;;;;;;;14.82;13.32;;;12.10;99.90;;;;;;5076511;28;20515;-69
2021/05/12 00:28:34;;;;;;;21.17;15.90;;;12.00;99.90;;;;;;5091956;28;20947;-69
2021/05/12 00:31:00;;;;;;;15.63;13.45;;;12.20;99.90;;;;;;5094298;28;20063;-70
2021/05/12 00:33:26;;;;;;;17.35;14.80;;;12.10;99.90;;;;;;5102758;28;20490;-70
2021/05/12 00:35:52;;;;;;;16.08;14.27;;;12.10;99.90;;;;;;5095742;28;20085;-70
2021/05/12 00:38:17;;;;;;;16.38;14.73;;;12.00;99.90;;;;;;5099702;28;20060;-70
2021/05/12 00:40:43;;;;;;;18.95;14.20;;;12.00;99.90;;;;;;5103185;28;20051;-70
2021/05/12 00:43:09;;;;;;;16.92;13.60;;;12.00;99.90;;;;;;5094498;28;20161;-70
2021/05/12 00:45:35;;;;;;;17.73;15.57;;;12.00;99.90;;;;;;5101413;28;20058;-70
2021/05/12 00:48:00;;;;;;;17.42;14.80;;;12.00;99.90;;;;;;5095720;28;20048;-70
2021/05/12 00:50:29;;;;;;;22.02;14.65;;;12.00;99.90;;;;;;5102511;28;20117;-70
2021/05/12 00:52:55;;;;;;;16.58;14.85;;;11.90;99.90;;;;;;5094988;28;20530;-70
2021/05/12 00:55:21;;;;;;;16.92;15.05;;;12.00;99.90;;;;;;5099184;28;20394;-70
2021/05/12 00:57:48;;;;;;;16.02;14.45;;;12.00;99.90;;;;;;5097449;28;20428;-70
2021/05/12 01:00:18;;;;;;;16.98;14.85;;;12.00;99.90;;;;;;5102522;28;20044;-69
2021/05/12 01:02:43;;;;;;;17.35;14.73;;;12.00;99.90;;;;;;5098387;28;20036;-69
2021/05/12 01:05:31;;;;;;;17.08;14.50;;;11.90;99.90;;;;;;5102854;28;20541;-69
2021/05/12 01:07:57;;;;;;;19.83;16.25;;;11.90;99.90;;;;;;5095973;28;20133;-70
2021/05/12 01:10:23;;;;;;;17.38;15.52;;;11.90;99.90;;;;;;5103630;28;20036;-70
2021/05/12 01:12:50;;;;;;;17.88;14.80;;;11.80;99.90;;;;;;5098276;28;20059;-69
2021/05/12 01:15:16;;;;;;;17.98;15.35;;;11.80;99.90;;;;;;5103004;28;20040;-69
2021/05/12 01:17:42;;;;;;;16.88;15.05;;;11.70;99.90;;;;;;5098892;28;20038;-69
2021/05/12 01:20:10;;;;;;;24.75;16.27;;;11.70;99.90;;;;;;5103376;28;20047;-69
2021/05/12 01:22:36;;;;;;;26.77;17.75;;;11.70;99.90;;;;;;5103234;28;20043;-69
2021/05/12 01:25:03;;;;;;;17.35;13.75;;;11.70;99.90;;;;;;5101594;28;20032;-69
2021/05/12 01:27:29;;;;;;;19.65;16.23;;;11.70;99.90;;;;;;5104313;28;20040;-69
2021/05/12 01:29:55;;;;;;;17.70;15.80;;;11.60;99.90;;;;;;5098186;28;20032;-69
2021/05/12 01:32:21;;;;;;;18.52;15.55;;;11.60;99.90;;;;;;5104902;28;20081;-69
2021/05/12 01:34:47;;;;;;;22.08;16.05;;;11.60;99.90;;;;;;5085390;28;20028;-70
2021/05/12 01:37:13;;;;;;;17.98;15.23;;;11.60;99.90;;;;;;5104284;28;20104;-70
2021/05/12 01:39:38;;;;;;;19.95;15.75;;;11.60;99.90;;;;;;5081508;28;20044;-70
2021/05/12 01:42:04;;;;;;;19.48;16.02;;;11.50;99.90;;;;;;5105251;28;20032;-70
2021/05/12 01:44:30;;;;;;;21.38;17.60;;;11.50;99.90;;;;;;5097249;28;20491;-70
2021/05/12 01:46:56;;;;;;;22.15;17.35;;;11.40;99.90;;;;;;5103922;28;20039;-70
2021/05/12 01:49:24;;;;;;;19.38;16.40;;;11.50;99.90;;;;;;5100016;28;20058;-70
2021/05/12 01:51:49;;;;;;;19.52;16.08;;;11.50;99.90;;;;;;5105315;28;20044;-70
2021/05/12 01:54:15;;;;;;;20.23;16.70;;;11.50;99.90;;;;;;5098840;28;20066;-70
2021/05/12 01:56:42;;;;;;;21.15;17.40;;;11.50;99.90;;;;;;5102996;28;20589;-70
2021/05/12 01:59:09;;;;;;;22.52;18.13;;;11.50;99.90;;;;;;5099584;28;20503;-70
2021/05/12 02:01:36;;;;;;;27.33;18.50;;;11.50;99.90;;;;;;5105202;28;20111;-70
2021/05/12 02:04:03;;;;;;;21.00;16.70;;;11.50;99.90;;;;;;5106596;28;20028;-70
2021/05/12 02:06:29;;;;;;;24.23;17.67;;;11.50;99.90;;;;;;5084052;28;20135;-70
2021/05/12 02:08:55;;;;;;;22.65;17.80;;;11.50;99.90;;;;;;5105304;28;20127;-70
2021/05/12 02:11:20;;;;;;;23.90;17.17;;;11.50;99.90;;;;;;5097172;28;20338;-70
2021/05/12 02:13:46;;;;;;;20.30;17.63;;;11.60;99.90;;;;;;5099548;28;20427;-70
2021/05/12 02:16:12;;;;;;;21.65;16.65;;;11.60;99.90;;;;;;5100073;28;20073;-70
2021/05/12 02:18:38;;;;;;;19.88;16.92;;;11.60;99.90;;;;;;5104154;28;20036;-70
2021/05/12 02:21:04;;;;;;;21.52;18.45;;;11.50;99.90;;;;;;5097022;28;20032;-69
2021/05/12 02:23:31;;;;;;;22.95;16.85;;;11.50;99.90;;;;;;5104963;28;20063;-69
2021/05/12 02:25:57;;;;;;;19.70;16.30;;;11.50;99.90;;;;;;5097777;28;20117;-69
2021/05/12 02:28:23;;;;;;;21.25;17.50;;;11.50;99.90;;;;;;5100668;28;20035;-69
2021/05/12 02:30:49;;;;;;;20.05;16.35;;;11.40;99.90;;;;;;5101955;28;20035;-69
2021/05/12 02:33:16;;;;;;;20.98;17.50;;;11.50;99.90;;;;;;5103451;28;20036;-69
2021/05/12 02:35:42;;;;;;;24.25;18.10;;;11.40;99.90;;;;;;5098648;28;20559;-69
2021/05/12 02:38:08;;;;;;;25.50;19.10;;;11.30;99.90;;;;;;5104238;28;20394;-69
2021/05/12 02:40:34;;;;;;;22.63;18.17;;;11.40;99.90;;;;;;5100476;28;20107;-69
2021/05/12 02:43:00;;;;;;;26.05;18.55;;;11.30;99.90;;;;;;5098554;28;20139;-69
2021/05/12 02:45:28;;;;;;;23.17;19.52;;;11.30;99.90;;;;;;5083960;28;20081;-69
2021/05/12 02:47:57;;;;;;;29.83;21.80;;;11.30;99.90;;;;;;5096443;28;20043;-69
2021/05/12 02:50:33;;;;;;;31.45;21.73;;;11.30;99.90;;;;;;5104307;28;20038;-69
2021/05/12 02:53:01;;;;;;;30.33;22.33;;;11.30;99.90;;;;;;5057550;28;20055;-69
2021/05/12 02:55:28;;;;;;;32.40;23.60;;;11.30;99.90;;;;;;5086246;28;20539;-69
2021/05/12 02:57:54;;;;;;;37.40;23.83;;;11.40;99.90;;;;;;5096560;28;20475;-69
2021/05/12 03:00:24;;;;;;;35.03;24.58;;;11.30;99.90;;;;;;5102800;28;20093;-69
2021/05/12 03:02:50;;;;;;;41.83;26.58;;;11.40;99.90;;;;;;5098704;28;20051;-69
2021/05/12 03:05:17;;;;;;;40.60;26.52;;;11.40;99.90;;;;;;5100628;28;20051;-69
2021/05/12 03:07:43;;;;;;;42.53;26.92;;;11.40;99.90;;;;;;5096777;28;20036;-69
2021/05/12 03:10:12;;;;;;;46.17;27.55;;;11.50;99.90;;;;;;5099577;28;20087;-69
2021/05/12 03:12:38;;;;;;;44.25;26.40;;;11.40;99.90;;;;;;5092699;28;20399;-69
2021/05/12 03:15:08;;;;;;;45.28;27.05;;;11.50;99.90;;;;;;5081434;28;20047;-69
2021/05/12 03:17:34;;;;;;;42.22;27.23;;;11.40;99.90;;;;;;5096234;28;20042;-69
2021/05/12 03:20:00;;;;;;;46.60;26.25;;;11.50;99.90;;;;;;5102662;28;20044;-69
2021/05/12 03:22:26;;;;;;;38.50;25.38;;;11.40;99.90;;;;;;5097542;28;20091;-69
2021/05/12 03:24:51;;;;;;;45.67;28.02;;;11.40;99.90;;;;;;5102691;28;20197;-69
2021/05/12 03:27:17;;;;;;;38.30;24.77;;;11.50;99.90;;;;;;5100363;28;20071;-70
2021/05/12 03:29:43;;;;;;;40.35;25.48;;;11.40;99.90;;;;;;5080278;28;20115;-70
2021/05/12 03:32:09;;;;;;;49.53;26.35;;;11.40;99.90;;;;;;5101948;28;20047;-70
2021/05/12 03:34:35;;;;;;;46.40;26.88;;;11.30;99.90;;;;;;5096564;28;20098;-70
2021/05/12 03:37:00;;;;;;;44.65;26.90;;;11.40;99.90;;;;;;5103242;28;20035;-70
2021/05/12 03:39:48;;;;;;;36.60;25.33;;;11.30;99.90;;;;;;5099029;28;20126;-70
2021/05/12 03:42:14;;;;;;;53.50;27.88;;;11.30;99.90;;;;;;5100650;27;20027;-70
2021/05/12 03:44:40;;;;;;;51.88;28.77;;;11.30;99.90;;;;;;5092724;28;20176;-69
2021/05/12 03:47:06;;;;;;;48.83;28.70;;;11.30;99.90;;;;;;5101875;28;20040;-69
2021/05/12 03:49:31;;;;;;;42.60;27.25;;;11.20;99.90;;;;;;5095094;28;20040;-69
2021/05/12 03:51:57;;;;;;;38.90;26.50;;;11.20;99.90;;;;;;5101248;28;20066;-69
2021/05/12 03:54:24;;;;;;;43.25;28.05;;;11.20;99.90;;;;;;5082923;28;20047;-69
2021/05/12 03:56:50;;;;;;;40.83;27.88;;;11.20;99.90;;;;;;5103466;28;20454;-69
2021/05/12 03:59:15;;;;;;;53.13;29.90;;;11.20;99.90;;;;;;5097787;28;20044;-70
2021/05/12 04:01:42;;;;;;;46.00;27.55;;;11.30;99.90;;;;;;5102933;28;20548;-70
2021/05/12 04:04:10;;;;;;;48.83;28.95;;;11.20;99.90;;;;;;5075519;28;20568;-70
2021/05/12 04:06:39;;;;;;;43.30;29.13;;;11.30;99.90;;;;;;5102909;28;20031;-70
2021/05/12 04:09:05;;;;;;;53.35;29.88;;;11.30;99.90;;;;;;5082292;28;20031;-70
2021/05/12 04:11:31;;;;;;;50.10;31.00;;;11.30;99.90;;;;;;5101683;28;20110;-70
2021/05/12 04:13:57;;;;;;;59.75;31.20;;;11.30;99.90;;;;;;5101043;28;20100;-70
2021/05/12 04:16:22;;;;;;;45.67;30.42;;;11.30;99.90;;;;;;5100717;28;20067;-70
2021/05/12 04:18:48;;;;;;;49.47;32.17;;;11.30;99.90;;;;;;5104716;28;20078;-69
2021/05/12 04:21:14;;;;;;;58.95;31.27;;;11.30;99.90;;;;;;5097429;28;20081;-69
2021/05/12 04:23:40;;;;;;;53.58;31.42;;;11.40;99.90;;;;;;5101715;28;20054;-69
2021/05/12 04:26:05;;;;;;;40.97;29.00;;;11.30;99.90;;;;;;5096034;28;20032;-69
2021/05/12 04:28:31;;;;;;;41.63;28.60;;;11.30;99.90;;;;;;5097733;28;20103;-70
2021/05/12 04:30:57;;;;;;;76.03;55.60;;;11.40;99.90;;;;;;5094988;28;20139;-70
2021/05/12 04:33:23;;;;;;;88.63;70.55;;;11.40;99.90;;;;;;5101009;28;20047;-70
2021/05/12 04:35:49;;;;;;;52.92;30.60;;;11.40;99.90;;;;;;5096799;28;20044;-70
2021/05/12 04:38:15;;;;;;;41.38;28.42;;;11.40;99.90;;;;;;5101426;28;20044;-70
2021/05/12 04:40:40;;;;;;;44.03;28.55;;;11.40;99.90;;;;;;5077967;28;20610;-70
2021/05/12 04:43:07;;;;;;;45.50;30.38;;;11.50;99.90;;;;;;5101574;28;20035;-69
2021/05/12 04:45:33;;;;;;;40.97;29.27;;;11.60;99.90;;;;;;5098375;28;20054;-69
2021/05/12 04:47:58;;;;;;;38.25;28.58;;;11.60;99.90;;;;;;5102183;28;20036;-69
2021/05/12 04:50:32;;;;;;;39.75;30.73;;;11.70;99.90;;;;;;5098385;28;20543;-69
2021/05/12 04:52:59;;;;;;;38.17;28.63;;;11.70;99.90;;;;;;5095564;28;20044;-69
2021/05/12 04:55:25;;;;;;;39.10;28.92;;;11.70;99.90;;;;;;5100434;28;20027;-69
2021/05/12 04:57:51;;;;;;;40.88;27.92;;;11.70;99.90;;;;;;5097108;28;20044;-69
2021/05/12 05:00:20;;;;;;;38.28;27.55;;;11.70;99.90;;;;;;5103939;28;20032;-69
2021/05/12 05:02:46;;;;;;;35.95;27.38;;;11.80;99.90;;;;;;5095370;28;20035;-69
2021/05/12 05:05:15;;;;;;;36.42;27.23;;;11.80;99.90;;;;;;5102204;28;20488;-69
2021/05/12 05:07:40;;;;;;;32.30;26.45;;;11.80;99.90;;;;;;5096380;28;20419;-69
2021/05/12 05:10:07;;;;;;;29.77;24.70;;;11.90;99.90;;;;;;5082439;28;20059;-69
2021/05/12 05:12:33;;;;;;;35.40;26.05;;;11.90;99.90;;;;;;5097322;28;20431;-69
2021/05/12 05:14:59;;;;;;;35.47;27.25;;;11.90;99.90;;;;;;5102337;28;20061;-69
2021/05/12 05:17:26;;;;;;;34.40;26.75;;;12.00;99.90;;;;;;5093194;28;20042;-69
2021/05/12 05:19:53;;;;;;;30.13;24.27;;;12.00;99.90;;;;;;5102752;28;20042;-69
2021/05/12 05:22:20;;;;;;;27.88;23.98;;;12.10;99.90;;;;;;5099038;28;20054;-69
2021/05/12 05:24:48;;;;;;;30.00;24.80;;;12.00;99.90;;;;;;5098120;28;20537;-70
2021/05/12 05:27:14;;;;;;;26.60;22.98;;;12.20;99.90;;;;;;5080819;28;20131;-70
2021/05/12 05:29:40;;;;;;;26.33;23.50;;;12.30;99.90;;;;;;5102651;28;20107;-70
2021/05/12 05:32:06;;;;;;;27.17;22.98;;;12.40;99.90;;;;;;5101567;28;20471;-70
2021/05/12 05:34:31;;;;;;;23.55;21.08;;;12.50;99.90;;;;;;5096729;28;20035;-70
2021/05/12 05:36:57;;;;;;;22.75;19.60;;;12.60;99.90;;;;;;5099775;28;20039;-70
2021/05/12 05:39:23;;;;;;;20.73;18.45;;;12.60;99.90;;;;;;5096896;28;20393;-70
2021/05/12 05:41:53;;;;;;;20.17;17.00;;;12.70;99.90;;;;;;5102154;28;20036;-69
2021/05/12 05:44:20;;;;;;;19.60;17.52;;;12.70;99.90;;;;;;5097942;28;20051;-70
2021/05/12 05:46:46;;;;;;;17.60;15.32;;;12.70;99.90;;;;;;5082032;28;20113;-70
2021/05/12 05:49:12;;;;;;;16.45;14.52;;;12.70;99.90;;;;;;5097545;28;20044;-70
2021/05/12 05:51:38;;;;;;;18.60;14.68;;;12.80;99.90;;;;;;5105846;28;20036;-70
2021/05/12 05:54:04;;;;;;;16.88;13.95;;;12.80;99.70;;;;;;5099614;28;20054;-70
2021/05/12 05:56:32;;;;;;;16.13;13.93;;;12.90;99.30;;;;;;5087160;28;20460;-70
2021/05/12 05:58:58;;;;;;;14.70;12.98;;;12.80;99.10;;;;;;5098418;28;20043;-70
2021/05/12 06:01:23;;;;;;;15.60;13.55;;;12.90;99.10;;;;;;5102112;28;20039;-70
2021/05/12 06:03:50;;;;;;;15.57;13.15;;;12.90;99.20;;;;;;5097334;28;20094;-70
2021/05/12 06:06:15;;;;;;;17.05;13.10;;;13.00;99.30;;;;;;5107733;28;20055;-70
2021/05/12 06:08:41;;;;;;;17.00;12.02;;;13.10;99.10;;;;;;5101925;28;20209;-70
2021/05/12 06:11:09;;;;;;;11.25;10.05;;;13.10;98.60;;;;;;5099141;28;20066;-70
2021/05/12 06:13:35;;;;;;;13.00;9.27;;;13.20;98.70;;;;;;5105180;28;20384;-70
2021/05/12 06:16:03;;;;;;;11.27;8.73;;;13.20;98.20;;;;;;5101333;28;20044;-70
2021/05/12 06:18:29;;;;;;;12.10;8.05;;;13.30;98.00;;;;;;5085149;28;20466;-70
2021/05/12 06:20:55;;;;;;;9.45;7.95;;;13.30;97.40;;;;;;5099430;28;20459;-70
2021/05/12 06:23:22;;;;;;;13.27;7.82;;;13.30;97.00;;;;;;5105826;28;20138;-70
2021/05/12 06:25:50;;;;;;;11.45;6.70;;;13.40;97.00;;;;;;5093745;28;20127;-70
2021/05/12 06:28:18;;;;;;;10.23;6.10;;;13.40;96.40;;;;;;5102811;28;20040;-70
2021/05/12 06:30:49;;;;;;;9.00;5.50;;;13.50;96.10;;;;;;5098483;28;20656;-70
2021/05/12 06:33:15;;;;;;;11.15;4.57;;;13.50;95.90;;;;;;5103752;28;20125;-70
2021/05/12 06:35:41;;;;;;;11.32;5.35;;;13.60;95.80;;;;;;5101316;28;20169;-70
2021/05/12 06:38:08;;;;;;;9.82;6.05;;;13.60;95.30;;;;;;5105825;28;20437;-70
2021/05/12 06:40:34;;;;;;;9.43;5.63;;;13.70;95.40;;;;;;5098366;28;20035;-70
2021/05/12 06:43:00;;;;;;;9.38;6.22;;;13.70;95.30;;;;;;5103228;28;20032;-70
2021/05/12 06:45:26;;;;;;;10.27;6.07;;;13.80;95.10;;;;;;5090430;28;20047;-70
2021/05/12 06:47:54;;;;;;;9.18;5.10;;;13.80;94.90;;;;;;5105005;28;20468;-70
2021/05/12 06:50:27;;;;;;;8.18;4.45;;;13.90;94.00;;;;;;5098985;28;20040;-69
2021/05/12 06:52:57;;;;;;;13.30;5.18;;;13.90;93.70;;;;;;5101807;28;20048;-69
2021/05/12 06:55:24;;;;;;;10.70;5.53;;;13.90;93.10;;;;;;5101801;28;20045;-69
2021/05/12 06:57:50;;;;;;;10.10;5.07;;;13.90;93.10;;;;;;5101450;28;20040;-70
2021/05/12 07:00:17;;;;;;;8.82;4.53;;;14.00;93.40;;;;;;5106002;28;20118;-70
2021/05/12 07:02:43;;;;;;;10.85;4.15;;;14.10;93.20;;;;;;5096189;28;20040;-70
2021/05/12 07:05:14;;;;;;;8.52;3.90;;;14.10;92.80;;;;;;5101388;28;20115;-69
2021/05/12 07:07:41;;;;;;;10.52;4.03;;;14.20;92.70;;;;;;5097519;28;20038;-69
2021/05/12 07:10:08;;;;;;;7.13;3.15;;;14.30;92.70;;;;;;5101178;28;20044;-69
2021/05/12 07:12:35;;;;;;;6.20;3.30;;;14.40;92.50;;;;;;5095245;28;20051;-68
2021/05/12 07:15:06;;;;;;;7.00;3.30;;;14.50;92.20;;;;;;5103411;28;20526;-69
2021/05/12 07:17:33;;;;;;;7.03;3.67;;;14.60;91.80;;;;;;5095945;28;20036;-69
2021/05/12 07:19:59;;;;;;;8.23;3.88;;;14.70;92.00;;;;;;5104804;28;20051;-69
2021/05/12 07:22:26;;;;;;;7.65;3.53;;;14.70;91.80;;;;;;5095134;28;20466;-68
2021/05/12 07:24:52;;;;;;;10.18;3.90;;;14.80;91.80;;;;;;5083173;28;20095;-69
2021/05/12 07:27:19;;;;;;;8.88;3.65;;;14.80;91.90;;;;;;5096476;28;20032;-69
2021/05/12 07:29:48;;;;;;;9.07;3.13;;;14.90;91.60;;;;;;5099952;28;20110;-69
2021/05/12 07:32:15;;;;;;;6.13;3.00;;;15.00;91.20;;;;;;5095850;28;20046;-69
2021/05/12 07:34:41;;;;;;;9.55;3.00;;;15.20;90.50;;;;;;5100164;28;20047;-69
2021/05/12 07:37:07;;;;;;;8.43;2.50;;;15.30;90.60;;;;;;5095538;28;20119;-68
2021/05/12 07:39:40;;;;;;;7.97;2.60;;;15.50;90.20;;;;;;5099378;28;20135;-68
2021/05/12 07:42:08;;;;;;;6.38;2.83;;;15.60;90.10;;;;;;5107382;28;20448;-68
2021/05/12 07:44:34;;;;;;;6.15;2.70;;;15.70;90.00;;;;;;5095066;28;20046;-68
2021/05/12 07:47:00;;;;;;;6.05;2.17;;;15.80;89.90;;;;;;5102457;28;20078;-68
2021/05/12 07:49:26;;;;;;;5.20;1.77;;;15.80;90.00;;;;;;5096664;28;20035;-68
2021/05/12 07:51:53;;;;;;;4.28;1.70;;;15.90;88.60;;;;;;5104873;28;20044;-68
2021/05/12 07:54:18;;;;;;;6.10;1.83;;;15.90;88.50;;;;;;5082851;28;20093;-68
2021/05/12 07:56:45;;;;;;;10.95;2.60;;;15.80;87.60;;;;;;5106605;28;20036;-68
2021/05/12 07:59:19;;;;;;;5.47;1.70;;;15.80;86.40;;;;;;5091780;28;20167;-68
2021/05/12 08:01:47;;;;;;;7.57;2.03;;;15.80;86.50;;;;;;5087981;28;20044;-68
2021/05/12 08:04:12;;;;;;;8.10;2.20;;;15.90;87.60;;;;;;5098239;28;20387;-68
2021/05/12 08:06:39;;;;;;;7.28;2.03;;;15.90;86.10;;;;;;5083557;28;20483;-68
2021/05/12 08:09:09;;;;;;;4.68;1.15;;;16.10;86.80;;;;;;5099604;28;20064;-68
2021/05/12 08:11:36;;;;;;;3.65;0.85;;;16.20;86.80;;;;;;5100647;28;20042;-68
2021/05/12 08:14:04;;;;;;;8.35;1.10;;;16.30;86.70;;;;;;5093482;28;20036;-68
2021/05/12 08:16:33;;;;;;;6.15;1.00;;;16.50;86.10;;;;;;5100464;28;20509;-68
2021/05/12 08:19:15;;;;;;;4.47;1.00;;;16.70;84.90;;;;;;5099096;28;20043;-68
2021/05/12 08:21:50;;;;;;;7.68;1.23;;;16.80;83.80;;;;;;5102317;28;20039;-68
2021/05/12 08:24:16;;;;;;;4.57;0.90;;;17.00;84.60;;;;;;5096032;28;20499;-68
2021/05/12 08:26:41;;;;;;;9.63;1.40;;;17.20;84.50;;;;;;5101996;28;20039;-68
2021/05/12 08:29:08;;;;;;;5.68;1.10;;;17.40;82.40;;;;;;5095338;28;20109;-69
2021/05/12 08:31:37;;;;;;;4.65;0.90;;;17.70;80.60;;;;;;5102420;28;20043;-69
2021/05/12 08:34:03;;;;;;;4.65;0.80;;;17.90;79.60;;;;;;5101535;28;20058;-69
2021/05/12 08:36:50;;;;;;;5.40;1.00;;;18.10;78.00;;;;;;5087206;28;20139;-69
2021/05/12 08:39:17;;;;;;;7.70;0.98;;;18.40;77.70;;;;;;5103683;28;20584;-68
2021/05/12 08:41:44;;;;;;;5.47;1.00;;;18.80;75.70;;;;;;5098521;28;20541;-68
2021/05/12 08:44:15;;;;;;;6.22;1.08;;;18.90;72.30;;;;;;5100006;28;20157;-69
2021/05/12 08:46:42;;;;;;;6.07;0.80;;;19.10;71.20;;;;;;5099025;28;20430;-68
2021/05/12 08:49:08;;;;;;;5.60;0.90;;;19.20;72.40;;;;;;5090824;28;20383;-68
2021/05/12 08:51:36;;;;;;;5.43;0.90;;;19.40;72.50;;;;;;5093804;28;20074;-68
2021/05/12 08:54:02;;;;;;;5.38;0.88;;;19.70;69.30;;;;;;5103608;28;20063;-68
2021/05/12 08:56:27;;;;;;;4.70;0.70;;;19.80;69.70;;;;;;5094733;28;20164;-68
2021/05/12 08:58:53;;;;;;;4.05;0.65;;;20.00;68.40;;;;;;5102748;28;20505;-68
2021/05/12 09:01:19;;;;;;;6.80;1.27;;;20.10;66.60;;;;;;5095297;28;20410;-70
2021/05/12 09:03:46;;;;;;;4.55;0.93;;;20.10;66.10;;;;;;5104186;28;20031;-70
2021/05/12 09:06:12;;;;;;;7.05;1.10;;;20.20;67.10;;;;;;5095196;28;20548;-70
2021/05/12 09:08:40;;;;;;;6.38;1.10;;;20.30;65.50;;;;;;5087431;28;20052;-70
2021/05/12 09:11:06;;;;;;;6.53;1.15;;;20.40;66.60;;;;;;5096217;28;20032;-70
2021/05/12 09:13:39;;;;;;;4.63;0.82;;;20.40;64.70;;;;;;5106057;28;20036;-70
2021/05/12 09:16:18;;;;;;;4.35;0.73;;;20.40;62.80;;;;;;5078855;28;20036;-70
2021/05/12 09:18:44;;;;;;;5.45;0.98;;;20.60;62.70;;;;;;5084305;28;20044;-70
2021/05/12 09:21:10;;;;;;;5.03;1.10;;;20.70;64.30;;;;;;5096250;28;20040;-70
2021/05/12 09:23:40;;;;;;;7.55;1.63;;;20.80;62.70;;;;;;5087511;28;20554;-70
2021/05/12 09:26:16;;;;;;;5.43;1.45;;;21.00;59.40;;;;;;5104959;28;20074;-70
2021/05/12 09:28:43;;;;;;;7.43;1.20;;;21.00;56.60;;;;;;5101278;28;20062;-70
2021/05/12 09:31:12;;;;;;;6.32;0.98;;;20.90;60.20;;;;;;5104885;28;20418;-70
2021/05/12 09:33:41;;;;;;;6.80;1.52;;;20.80;59.60;;;;;;5097256;28;20089;-70
2021/05/12 09:36:08;;;;;;;6.30;1.15;;;20.70;60.30;;;;;;5102292;28;20032;-70
2021/05/12 09:38:35;;;;;;;5.88;1.10;;;20.60;58.90;;;;;;5083028;28;20039;-70
2021/05/12 09:41:03;;;;;;;5.25;1.00;;;20.60;58.60;;;;;;5100922;28;20043;-70
2021/05/12 09:43:31;;;;;;;7.07;1.10;;;20.70;59.80;;;;;;5096681;28;20078;-70
2021/05/12 09:46:15;;;;;;;4.85;0.90;;;20.80;57.90;;;;;;5106208;28;20078;-70
2021/05/12 09:48:47;;;;;;;;;;;20.90;54.30;;;;;;5082765;28;20058;-70
2021/05/12 09:51:20;;;;;;;8.00;0.85;;;20.70;55.10;;;;;;5088578;28;19916;-70
2021/05/12 09:54:03;;;;;;;4.97;1.10;;;20.80;59.50;;;;;;5100861;28;20086;-70
2021/05/12 09:56:43;;;;;;;7.13;1.02;;;20.80;55.10;;;;;;5104830;28;20110;-70
2021/05/12 09:59:15;;;;;;;4.70;1.15;;;21.00;56.10;;;;;;5099224;28;20036;-69
2021/05/12 10:01:46;;;;;;;3.35;0.88;;;21.20;57.30;;;;;;5098914;28;20031;-69
2021/05/12 10:04:32;;;;;;;5.13;1.05;;;21.40;55.50;;;;;;5099391;28;20153;-70
2021/05/12 10:06:59;;;;;;;5.28;0.82;;;21.40;54.90;;;;;;5102981;28;20074;-70
2021/05/12 10:09:30;;;;;;;6.47;1.13;;;21.40;55.20;;;;;;5096336;28;20055;-70
2021/05/12 10:12:07;;;;;;;6.18;1.30;;;21.40;53.80;;;;;;5107833;28;20062;-70
2021/05/12 10:14:34;;;;;;;5.72;1.40;;;21.30;52.30;;;;;;5097088;28;20257;-70
2021/05/12 10:17:05;;;;;;;6.05;1.63;;;21.00;55.50;;;;;;5110298;28;20105;-70
2021/05/12 10:19:33;;;;;;;5.30;1.42;;;21.20;55.90;;;;;;5097481;28;20043;-70
2021/05/12 10:22:00;;;;;;;8.18;1.30;;;21.50;55.80;;;;;;5102745;28;20043;-70
2021/05/12 10:24:27;;;;;;;6.25;1.15;;;21.80;56.30;;;;;;5100778;28;20119;-70
2021/05/12 10:26:53;;;;;;;5.63;1.20;;;21.80;55.50;;;;;;5106635;28;20047;-70
2021/05/12 10:29:20;;;;;;;8.38;1.67;;;21.20;55.20;;;;;;5102924;28;20483;-70
2021/05/12 10:31:47;;;;;;;7.32;1.48;;;21.00;55.90;;;;;;5099249;28;20072;-70
2021/05/12 10:34:35;;;;;;;6.82;1.50;;;20.80;57.00;;;;;;5096414;28;20126;-70
2021/05/12 10:37:22;;;;;;;6.95;1.33;;;21.00;56.80;;;;;;5100093;28;20115;-70
2021/05/12 10:40:01;;;;;;;6.28;1.45;;;21.50;54.80;;;;;;5098424;28;20083;-70
2021/05/12 10:42:47;;;;;;;5.80;1.40;;;21.70;55.10;;;;;;5106431;28;20092;-70
2021/05/12 10:45:41;;;;;;;7.60;1.42;;;21.90;53.00;;;;;;5100541;28;20046;-70
2021/05/12 10:48:07;;;;;;;6.65;1.60;;;22.10;54.80;;;;;;5105010;28;20139;-70
2021/05/12 10:50:50;;;;;;;7.57;1.75;;;22.10;53.90;;;;;;5100652;28;20038;-70
2021/05/12 10:53:24;;;;;;;8.10;1.75;;;22.00;50.50;;;;;;5106695;28;20471;-70
2021/05/12 10:55:56;;;;;;;8.45;1.88;;;21.80;52.60;;;;;;5098026;28;20039;-70
2021/05/12 10:58:29;;;;;;;7.00;1.52;;;21.70;54.10;;;;;;5105684;28;20040;-70
2021/05/12 11:00:57;;;;;;;;;;;21.90;55.50;;;;;;5096442;28;20089;-70
2021/05/12 11:03:24;;;;;;;5.35;0.90;;;22.00;52.90;;;;;;5105455;28;20367;-70
2021/05/12 11:05:52;;;;;;;7.82;1.80;;;22.20;54.80;;;;;;5080604;28;20052;-70
2021/05/12 11:08:20;;;;;;;7.35;1.33;;;22.40;52.00;;;;;;5109563;28;20031;-70
2021/05/12 11:11:01;;;;;;;5.20;1.30;;;22.20;52.00;;;;;;5096972;28;20048;-70
2021/05/12 11:13:29;;;;;;;5.97;1.58;;;21.70;49.40;;;;;;5107735;28;20040;-70
2021/05/12 11:16:00;;;;;;;9.73;1.77;;;21.40;53.40;;;;;;5097116;28;20097;-70
2021/05/12 11:18:34;;;;;;;7.97;2.05;;;21.60;53.60;;;;;;5100527;28;20138;-70
2021/05/12 11:21:35;;;;;;;8.00;1.63;;;21.90;51.70;;;;;;5084932;28;20063;-70
2021/05/12 11:24:05;;;;;;;9.63;1.85;;;21.80;52.10;;;;;;5105069;28;20134;-70
2021/05/12 11:32:02;;;;;;;6.95;1.30;;;22.40;53.20;;;;;;5094053;28;20059;-71
2021/05/12 11:34:29;;;;;;;8.23;1.63;;;22.70;49.40;;;;;;5104636;28;20035;-70
2021/05/12 11:37:10;;;;;;;8.18;1.65;;;22.20;51.10;;;;;;5095485;28;20044;-69
2021/05/12 11:39:36;;;;;;;5.88;1.67;;;21.80;51.50;;;;;;5088452;28;20083;-70
2021/05/12 11:42:02;;;;;;;9.57;2.05;;;21.50;53.10;;;;;;5095408;28;20047;-71
2021/05/12 11:44:28;;;;;;;9.27;1.63;;;21.30;54.60;;;;;;5102463;28;20428;-70
2021/05/12 11:46:54;;;;;;;6.53;1.40;;;21.40;54.70;;;;;;5098367;28;20035;-70
2021/05/12 11:49:22;;;;;;;11.77;2.22;;;21.40;54.60;;;;;;5100169;28;20040;-70
2021/05/12 11:51:51;;;;;;;7.18;2.00;;;21.50;53.60;;;;;;5101339;28;20066;-70
2021/05/12 11:54:22;;;;;;;9.27;2.05;;;21.60;53.70;;;;;;5098505;28;20074;-70
2021/05/12 11:56:50;;;;;;;8.88;1.70;;;21.50;53.70;;;;;;5103081;28;20044;-70
2021/05/12 11:59:22;;;;;;;7.13;1.48;;;21.20;53.30;;;;;;5093813;28;20042;-70
2021/05/12 12:01:55;;;;;;;11.45;1.95;;;21.30;53.90;;;;;;5095417;28;20036;-71
2021/05/12 12:06:48;;;;;;;7.03;1.30;;;22.00;52.90;;;;;;5101117;28;20039;-70
2021/05/12 12:09:15;;;;;;;7.90;1.10;;;21.80;51.80;;;;;;5101692;28;20035;-69
2021/05/12 12:11:43;;;;;;;9.93;1.70;;;21.30;52.10;;;;;;5103551;28;20482;-70
2021/05/12 12:14:09;;;;;;;6.53;1.48;;;20.80;52.80;;;;;;5099360;28;20063;-69
2021/05/12 12:16:37;;;;;;;9.27;1.60;;;20.40;53.70;;;;;;5100215;28;20114;-70
2021/05/12 12:19:17;;;;;;;7.88;1.70;;;20.20;54.50;;;;;;5086381;28;20138;-70
2021/05/12 12:21:45;;;;;;;9.27;1.13;;;20.90;54.60;;;;;;5091476;28;20437;-70
2021/05/12 12:24:15;;;;;;;5.30;1.35;;;21.40;53.00;;;;;;5081330;28;20525;-70
2021/05/12 12:26:44;;;;;;;7.10;1.30;;;21.30;52.90;;;;;;5103774;28;20445;-70
2021/05/12 12:29:11;;;;;;;6.25;1.27;;;21.10;51.80;;;;;;5098197;28;20031;-70
2021/05/12 12:31:45;;;;;;;6.38;1.20;;;20.80;52.40;;;;;;5105037;28;20048;-70
2021/05/12 12:34:23;;;;;;;5.70;1.10;;;21.10;52.50;;;;;;5099627;28;20599;-70
2021/05/12 12:37:16;;;;;;;6.85;1.33;;;21.60;50.80;;;;;;5100070;28;20418;-67
2021/05/12 12:39:58;;;;;;;5.05;0.90;;;21.80;48.20;;;;;;5096762;28;20573;-67
2021/05/12 12:42:26;;;;;;;5.63;0.90;;;21.50;48.70;;;;;;5102707;28;20036;-69
2021/05/12 12:44:53;;;;;;;3.88;0.82;;;21.50;48.80;;;;;;5102348;28;20197;-69
2021/05/12 12:47:21;;;;;;;6.07;1.35;;;21.40;49.00;;;;;;5104585;28;20548;-69
2021/05/12 12:49:58;;;;;;;6.15;1.13;;;21.00;49.30;;;;;;5099480;28;20462;-69
2021/05/12 12:52:30;;;;;;;8.02;1.40;;;20.60;50.40;;;;;;5103383;28;20456;-69